Du har inga inställningar för hoppväder.nu

Hoppväder.nu

Senast uppdaterat 09:47

UTC-tid

2020-08-06 kl. 07:47


Sol och måne

Solen går upp 4:49 och går ner 22:03 (beräknade cirkatider)
Nästa fullmåne blir om 27 dagar (2020-09-02)

METAR

ESSA (Arlanda, Stockholm)
(27 minuter sedan)
ESSA 060720Z 21007KT 9999 BKN009 16/15 Q1019 TEMPO BKN012=



ESSD (Borlänge)
(27 minuter sedan)
ESSD 060720Z 23006KT 200V260 9999 BKN025 18/15 Q1017=



EFMA (Mariehamn)
(27 minuter sedan)
EFMA 060720Z 22006KT 190V270 9999 OVC011 18/15 Q1018=



ESOW (Västerås)
(27 minuter sedan)
ESOW 060720Z 22005KT 190V260 9999 BKN012 19/15 Q1019=






TAF

ESSA (Arlanda, Stockholm)
(137 minuter sedan)
ESSA 060530Z 0606/0706 25009KT 9999 BKN030 TEMPO 0606/0609 4000 DZ BKN006 PROB40 0700/0704 3000 BR=



ESSD (Borlänge)
(77 minuter sedan)
ESSD 060630Z 0607/0613 23008KT 9999 SCT015 BKN025 PROB40 0607/0609 BKN012=



EFMA (Mariehamn)
(141 minuter sedan)
EFMA 060526Z 0606/0615 22009KT 9999 BKN025 PROB30 0606/0611 BKN008=



ESOW (Västerås)
(137 minuter sedan)
ESOW 060530Z 0606/0615 22009KT 9999 BKN030 TEMPO 0606/0608 BKN008=





Kodnycklar till TAF och METAR






LHP

(Gryttjom är område se34e i Delområde 1)

Översikt

ÖVERSIKT FÖR OMRÅDE se3 UTFÄRDAD 060724

GÄLLANDE DEN 6 AUGUSTI 2020 MELLAN 08 OCH 16 UTC


Väderöversikt

En högtrycksrygg förstärks över södra Sverige.

Sikt under 5 kilometer eller molnbas under 1000 fot
08-10UTC: Hela området utom se33
10-12UTC: Område se31


Måttlig eller svår isbildning
Väntas inte förekomma under perioden

Måttlig eller svår turbulens
Väntas inte förekomma under perioden

Delområde 1

PROGNOS FÖR OMRÅDE se34 UTFÄRDAD 060724
GÄLLANDE DEN 6 AUGUSTI 2020 MELLAN 08 OCH 16 UTC

Måttlig eller svår turbulens
08-16UTC: I hela området: Väntas inte förekomma under perioden

Måttlig eller svår isbildning
08-16UTC: I hela området: Väntas inte förekomma under perioden

Sikt/Väder/Moln
08-10UTC: Område se34b: Sikt 3km - >8km i duggregn, regn. Molnbas 1000ft - >2000ft.
Område se34a,se34f,se34e,se34d,se34c: Sikt 1.5km - >8km i dis, duggregn, regn. Molnbas 500ft - >2000ft.

10-12UTC: Område se34d,se34c: Sikt 5km - >8km i duggregn, regn. Molnbas 1500ft - >2000ft.

10-16UTC: Område se34b,se34a,se34f,se34e: Sikt >8km. Molnbas >2000ft.

12-14UTC: Område se34d: Sikt 5km - >8km i dis, duggregn, regn. Molnbas 1000ft - >2000ft.

12-16UTC: Område se34c: Sikt >8km. Molnbas >2000ft.

14-16UTC: Område se34d: Sikt >8km. Molnbas >2000ft.


Molnöversida
08-12UTC: I hela området: Molnöversida > FL125.
12-16UTC: Område se34b,se34a,se34f,se34e: Molnöversida FL060.
Område se34d,se34c: Molnöversida FL100.


CB/TCU Moln
08-16UTC: I hela området: Väntas inte förekomma under perioden

Nollgradersisoterm
08-10UTC: Noll grader FL110 - > FL125.
10-12UTC: Noll grader FL115 - > FL125.
12-16UTC: Noll grader FL110 - > FL125.

Vind vid marken
08-10UTC: Område se34c: SV-V/2-11 knop, byar upp till 17 knop.
Område se34b,se34f: SV-V/5-11 knop, byar upp till 18 knop.
Område se34e: SV-V/5-10 knop, byar upp till 17 knop.
Område se34a: SV-V/5-11 knop, byar upp till 17 knop.

08-12UTC: Område se34d: SV-V/5-8 knop, byar upp till 18 knop.

10-12UTC: Område se34f: SV-V/4-9 knop, byar upp till 18 knop.
Område se34a: SV-V/4-10 knop, byar upp till 17 knop.
Område se34c: SV-V/3-9 knop, byar upp till 17 knop.
Område se34b: SV-V/3-11 knop, byar upp till 18 knop.
Område se34e: SV-V/4-8 knop, byar upp till 18 knop.

12-14UTC: Område se34c: SV-V/4-9 knop, byar upp till 17 knop.
Område se34e: SV-V/4-9 knop, byar upp till 19 knop.
Område se34d: SV-V/5-9 knop, byar upp till 19 knop.
Område se34b: SV-V/0-11 knop, byar upp till 18 knop.
Område se34a: SV-V/0-8 knop, byar upp till 17 knop.
Område se34f: SV-V/4-10 knop, byar upp till 18 knop.

14-16UTC: Område se34a: S-SV/0-9 knop, byar upp till 16 knop.
Område se34f: SV-V/4-8 knop, byar upp till 17 knop.
Område se34c: SV-V/3-10 knop, byar upp till 18 knop.
Område se34e: SV-V/4-9 knop, byar upp till 18 knop.
Område se34b: SV/0-10 knop, byar upp till 17 knop.
Område se34d: SV-V/5-7 knop, byar upp till 18 knop.


Genomsnittlig vind och temperatur för området
2000ft:
08-10UTC: 260/15kt +12.
10-12UTC: 260/12kt +13.
12-14UTC: 250/12kt +14.
14-16UTC: 250/11kt +16.

FL50:
08-10UTC: 270/16kt +9.
10-12UTC: 280/17kt +10.
12-14UTC: 290/18kt +11.
14-16UTC: 280/16kt +10.

FL100:
08-10UTC: 290/27kt +3.
10-12UTC: 280/26kt +3.
12-14UTC: 280/23kt +3.
14-16UTC: 270/19kt +2.

Lägsta QNH
1017 hPa.

OBS! endast utbredd måttlig eller svår isbildning och turbulens prognostiseras i LLF.
Avsaknad av isbildning och turbulens i prognosen utesluter inte förekomst av lätt isbildning och turbulens.
För indikation på lätt isbildning, var vänlig kontrollera om prognosen för molntopp ligger högre än nollgradersisotermen.
Förekomst av TCU eller CB medför alltid en risk för måttlig eller svår isbildning och turbulens även om det inte framgår explicit av prognosen.







Spotting

Hur fungerar spotthjälpen och Vindkartan?

Markvind är ca 3-5 m/s med byar på 9 m/s.
Vind på 600 m ca 8 m/s.
Vind på 1500 m ca 8 m/s.
Vind på 3000 m ca 14 m/s.
SE-GEE flyger ca 31 m/s över marken på finalen.
Du driver ca 625 m bakåt i frifall. (833 m)
Lämplig spot är 11 sekunder eller 345 m efter gropen.
(18 s eller 565 m)
För små grupper eller ensamhoppare bör man vänta 5-7 sekunder mellan grupperna.
För större grupper bör man vänta 10-12 sekunder mellan grupperna.


Vindkartan

Senast uppdaterad 09:47




All data kommer från LFV.se